createdAt,value
2017-07-02T00:02:16.750Z,101217.73
2017-07-02T00:04:44.340Z,101218.64
2017-07-02T00:07:11.874Z,101218.08
2017-07-02T00:09:39.682Z,101215.84
2017-07-02T00:12:07.215Z,101214.15
2017-07-02T00:14:34.731Z,101215.88
2017-07-02T00:17:02.326Z,101221.68
2017-07-02T00:19:29.871Z,101225.63
2017-07-02T00:21:57.439Z,101225.57
2017-07-02T00:24:25.004Z,101222.64
2017-07-02T00:26:52.789Z,101218.50
2017-07-02T00:29:20.312Z,101220.50
2017-07-02T00:31:47.824Z,101226.55
2017-07-02T00:34:15.400Z,101225.03
2017-07-02T00:36:42.936Z,101224.41
2017-07-02T00:39:10.564Z,101222.28
2017-07-02T00:41:38.099Z,101229.00
2017-07-02T00:44:05.751Z,101228.38
2017-07-02T00:46:33.267Z,101227.25
2017-07-02T00:49:01.017Z,101232.48
2017-07-02T00:51:28.569Z,101223.73
2017-07-02T00:53:56.099Z,101226.63
2017-07-02T00:56:23.670Z,101231.12
2017-07-02T00:58:51.288Z,101227.73
2017-07-02T01:01:18.870Z,101235.28
2017-07-02T01:03:46.463Z,101226.46
2017-07-02T01:06:14.062Z,101233.45
2017-07-02T01:08:41.698Z,101231.66
2017-07-02T01:11:09.283Z,101232.91
2017-07-02T01:13:36.844Z,101232.57
2017-07-02T01:16:04.380Z,101231.05
2017-07-02T01:18:32.083Z,101234.28
2017-07-02T01:20:59.610Z,101239.38
2017-07-02T01:23:27.192Z,101237.61
2017-07-02T01:25:54.748Z,101246.71
2017-07-02T01:28:22.260Z,101250.11
2017-07-02T01:30:49.820Z,101251.50
2017-07-02T01:33:17.354Z,101254.16
2017-07-02T01:35:44.902Z,101249.95
2017-07-02T01:38:12.430Z,101256.27
2017-07-02T01:40:40.339Z,101246.38
2017-07-02T01:43:07.872Z,101250.00
2017-07-02T01:45:35.398Z,101247.91
2017-07-02T01:48:03.062Z,101243.34
2017-07-02T01:50:30.650Z,101239.21
2017-07-02T01:52:58.185Z,101232.55
2017-07-02T01:55:25.683Z,101235.11
2017-07-02T01:57:53.339Z,101235.11
2017-07-02T02:00:20.858Z,101241.27
2017-07-02T02:03:00.393Z,101232.95
2017-07-02T02:05:27.922Z,101241.47
2017-07-02T02:07:55.494Z,101240.20
2017-07-02T02:10:23.047Z,101236.66
2017-07-02T02:12:50.578Z,101233.30
2017-07-02T02:15:18.135Z,101235.90
2017-07-02T02:17:45.668Z,101233.31
2017-07-02T02:20:13.589Z,101235.00
2017-07-02T02:22:41.128Z,101237.73
2017-07-02T02:25:08.666Z,101240.73
2017-07-02T02:27:36.220Z,101241.27
2017-07-02T02:30:03.736Z,101243.08
2017-07-02T02:32:31.329Z,101237.51
2017-07-02T02:34:58.911Z,101237.14
2017-07-02T02:37:26.657Z,101242.47
2017-07-02T02:39:54.188Z,101235.10
2017-07-02T02:42:21.743Z,101236.07
2017-07-02T02:44:49.371Z,101232.17
2017-07-02T02:47:16.996Z,101230.02
2017-07-02T02:49:44.616Z,101238.58
2017-07-02T02:52:12.164Z,101238.77
2017-07-02T02:54:39.733Z,101237.89
2017-07-02T02:57:07.292Z,101244.89
2017-07-02T02:59:34.866Z,101237.72
2017-07-02T03:02:02.407Z,101236.08
2017-07-02T03:04:30.303Z,101236.45
2017-07-02T03:06:57.837Z,101245.51
2017-07-02T03:09:25.351Z,101243.25
2017-07-02T03:11:52.898Z,101238.73
2017-07-02T03:14:20.428Z,101242.69
2017-07-02T03:16:47.982Z,101248.92
2017-07-02T03:19:15.535Z,101247.33
2017-07-02T03:21:43.115Z,101249.39
2017-07-02T03:24:10.665Z,101249.11
2017-07-02T03:26:38.232Z,101245.48
2017-07-02T03:29:05.751Z,101249.72
2017-07-02T03:31:33.319Z,101245.78
2017-07-02T03:34:00.874Z,101250.47
2017-07-02T03:36:28.607Z,101245.51
2017-07-02T03:38:56.439Z,101252.69
2017-07-02T03:41:24.018Z,101253.73
2017-07-02T03:43:51.575Z,101249.97
2017-07-02T03:46:19.104Z,101261.46
2017-07-02T03:48:46.702Z,101257.66
2017-07-02T03:51:14.237Z,101251.52
2017-07-02T03:53:41.846Z,101255.45
2017-07-02T03:56:09.367Z,101259.14
2017-07-02T03:58:37.065Z,101259.60
2017-07-02T04:01:04.583Z,101265.22
2017-07-02T04:03:32.109Z,101265.28
2017-07-02T04:05:59.699Z,101264.42
2017-07-02T04:08:27.213Z,101268.66
2017-07-02T04:10:55.083Z,101269.34
2017-07-02T04:13:22.587Z,101276.87
2017-07-02T04:15:50.128Z,101270.55
2017-07-02T04:18:17.689Z,101266.61
2017-07-02T04:20:45.219Z,101275.13
2017-07-02T04:23:12.957Z,101265.38
2017-07-02T04:25:40.458Z,101270.13
2017-07-02T04:28:08.031Z,101268.55
2017-07-02T04:30:35.591Z,101271.23
2017-07-02T04:33:03.169Z,101271.62
2017-07-02T04:35:30.723Z,101261.55
2017-07-02T04:37:58.336Z,101262.16
2017-07-02T04:40:25.985Z,101266.95
2017-07-02T04:42:53.593Z,101262.22
2017-07-02T04:45:21.306Z,101260.10
2017-07-02T04:47:48.812Z,101262.59
2017-07-02T04:50:16.324Z,101264.48
2017-07-02T04:52:43.894Z,101269.55
2017-07-02T04:55:11.510Z,101268.53
2017-07-02T04:57:39.063Z,101270.13
2017-07-02T05:00:06.681Z,101271.81
2017-07-02T05:02:34.579Z,101274.58
2017-07-02T05:05:02.117Z,101279.36
2017-07-02T05:07:29.651Z,101282.64
2017-07-02T05:09:57.204Z,101286.14
2017-07-02T05:12:24.731Z,101281.00
2017-07-02T05:14:52.307Z,101289.89
2017-07-02T05:17:19.835Z,101285.11
2017-07-02T05:19:47.395Z,101280.37
2017-07-02T05:22:14.915Z,101281.12
2017-07-02T05:24:42.574Z,101284.21
2017-07-02T05:27:10.097Z,101285.30
2017-07-02T05:29:37.607Z,101280.91
2017-07-02T05:32:05.156Z,101275.27
2017-07-02T05:34:32.730Z,101272.69
2017-07-02T05:37:00.388Z,101268.75
2017-07-02T05:39:27.902Z,101278.89
2017-07-02T05:41:55.630Z,101276.53
2017-07-02T05:44:23.220Z,101277.77
2017-07-02T05:46:50.740Z,101275.20
2017-07-02T05:49:18.316Z,101279.28
2017-07-02T05:51:45.827Z,101279.97
2017-07-02T05:54:13.379Z,101283.76
2017-07-02T05:56:40.898Z,101281.52
2017-07-02T05:59:08.471Z,101281.84
2017-07-02T06:01:36.057Z,101285.86
2017-07-02T06:04:03.604Z,101281.28
2017-07-02T06:06:31.103Z,101278.38
2017-07-02T06:08:58.815Z,101287.46
2017-07-02T06:11:26.337Z,101287.41
2017-07-02T06:13:53.853Z,101282.57
2017-07-02T06:16:21.406Z,101289.86
2017-07-02T06:18:48.919Z,101288.95
2017-07-02T06:21:16.471Z,101292.44
2017-07-02T06:23:43.975Z,101295.86
2017-07-02T06:26:11.528Z,101298.85
2017-07-02T06:28:39.047Z,101300.69
2017-07-02T06:31:06.722Z,101303.45
2017-07-02T06:33:34.243Z,101312.15
2017-07-02T06:36:01.755Z,101312.60
2017-07-02T06:38:29.331Z,101311.82
2017-07-02T06:40:56.855Z,101309.16
2017-07-02T06:43:24.419Z,101314.23
2017-07-02T06:45:51.917Z,101307.67
2017-07-02T06:48:19.470Z,101309.59
2017-07-02T06:50:47.017Z,101309.70
2017-07-02T06:53:14.563Z,101311.77
2017-07-02T06:55:42.092Z,101310.14
2017-07-02T06:58:09.732Z,101315.95
2017-07-02T07:00:37.248Z,101320.03
2017-07-02T07:03:04.898Z,101318.72
2017-07-02T07:05:32.487Z,101327.27
2017-07-02T07:08:00.018Z,101322.78
2017-07-02T07:10:27.591Z,101325.39
2017-07-02T07:12:55.106Z,101329.86
2017-07-02T07:15:22.679Z,101325.51
2017-07-02T07:17:50.194Z,101330.04
2017-07-02T07:20:17.760Z,101326.19
2017-07-02T07:22:45.266Z,101322.77
2017-07-02T07:25:12.827Z,101333.67
2017-07-02T07:27:40.327Z,101326.30
2017-07-02T07:30:08.272Z,101324.84
2017-07-02T07:32:35.803Z,101327.78
2017-07-02T07:35:03.336Z,101328.87
2017-07-02T07:37:30.898Z,101329.23
2017-07-02T07:39:58.407Z,101325.24
2017-07-02T07:42:25.979Z,101327.89
2017-07-02T07:44:53.492Z,101329.33
2017-07-02T07:47:21.168Z,101328.93
2017-07-02T07:49:48.676Z,101333.02
2017-07-02T07:52:16.207Z,101335.91
2017-07-02T07:54:43.778Z,101330.29
2017-07-02T07:57:11.287Z,101342.91
2017-07-02T07:59:38.840Z,101338.27
2017-07-02T08:02:06.367Z,101339.18
2017-07-02T08:04:33.952Z,101343.28
2017-07-02T08:07:01.480Z,101344.29
2017-07-02T08:09:29.188Z,101353.70
2017-07-02T08:11:56.704Z,101346.53
2017-07-02T08:14:24.240Z,101352.28
2017-07-02T08:16:51.815Z,101358.17
2017-07-02T08:19:19.315Z,101353.73
2017-07-02T08:21:46.879Z,101356.27
2017-07-02T08:24:14.383Z,101365.58
2017-07-02T08:26:41.979Z,101375.23
2017-07-02T08:29:09.504Z,101366.72
2017-07-02T08:31:37.107Z,101359.49
2017-07-02T08:34:04.664Z,101354.89
2017-07-02T08:36:32.347Z,101353.47
2017-07-02T08:38:59.847Z,101360.58
2017-07-02T08:41:27.384Z,101362.37
2017-07-02T08:43:54.999Z,101370.98
2017-07-02T08:46:22.519Z,101378.77
2017-07-02T08:48:50.116Z,101370.82
2017-07-02T08:51:17.641Z,101374.94
2017-07-02T08:53:45.457Z,101376.66
2017-07-02T08:56:12.974Z,101371.78
2017-07-02T08:58:40.505Z,101377.34
2017-07-02T09:01:08.107Z,101382.56
2017-07-02T09:03:35.627Z,101381.63
2017-07-02T09:06:03.187Z,101381.27
2017-07-02T09:08:30.677Z,101381.80
2017-07-02T09:10:58.360Z,101386.24
2017-07-02T09:13:25.892Z,101386.80
2017-07-02T09:15:53.371Z,101383.03
2017-07-02T09:18:20.938Z,101384.62
2017-07-02T09:20:48.456Z,101377.95
2017-07-02T09:23:16.031Z,101379.98
2017-07-02T09:25:43.555Z,101385.44
2017-07-02T09:28:11.113Z,101373.11
2017-07-02T09:30:38.661Z,101386.37
2017-07-02T09:33:06.218Z,101382.25
2017-07-02T09:35:33.778Z,101380.16
2017-07-02T09:38:01.403Z,101389.81
2017-07-02T09:40:28.948Z,101391.43
2017-07-02T09:42:56.468Z,101393.56
2017-07-02T09:45:24.010Z,101394.09
2017-07-02T09:47:51.562Z,101397.98
2017-07-02T09:50:19.071Z,101401.41
2017-07-02T09:52:46.631Z,101397.94
2017-07-02T09:55:14.162Z,101411.07
2017-07-02T09:57:41.896Z,101406.80
2017-07-02T10:00:09.422Z,101409.69
2017-07-02T10:02:36.964Z,101416.42
2017-07-02T10:05:04.532Z,101421.72
2017-07-02T10:07:32.046Z,101420.41
2017-07-02T10:09:59.651Z,101419.16
2017-07-02T10:12:27.167Z,101423.29
2017-07-02T10:14:54.718Z,101422.14
2017-07-02T10:17:22.239Z,101426.67
2017-07-02T10:19:49.931Z,101425.14
2017-07-02T10:22:17.472Z,101422.10
2017-07-02T10:24:44.976Z,101425.00
2017-07-02T10:27:12.613Z,101423.91
2017-07-02T10:29:40.143Z,101417.81
2017-07-02T10:32:07.784Z,101422.89
2017-07-02T10:34:35.371Z,101422.52
2017-07-02T10:37:03.034Z,101426.98
2017-07-02T10:39:30.571Z,101429.52
2017-07-02T10:41:58.481Z,101418.90
2017-07-02T10:44:26.004Z,101420.37
2017-07-02T10:46:53.532Z,101419.02
2017-07-02T10:49:21.125Z,101417.25
2017-07-02T10:51:48.689Z,101416.91
2017-07-02T10:54:16.395Z,101414.05
2017-07-02T10:56:44.002Z,101414.91
2017-07-02T10:59:11.583Z,101416.53
2017-07-02T11:01:39.426Z,101422.34
2017-07-02T11:04:07.327Z,101428.75
2017-07-02T11:06:34.906Z,101425.55
2017-07-02T11:09:02.480Z,101426.72
2017-07-02T11:11:30.039Z,101429.91
2017-07-02T11:13:57.710Z,101427.47
2017-07-02T11:16:25.283Z,101430.03
2017-07-02T11:18:52.799Z,101425.54
2017-07-02T11:21:20.371Z,101431.65
2017-07-02T11:23:47.888Z,101428.48
2017-07-02T11:26:15.460Z,101431.90
2017-07-02T11:28:43.001Z,101436.89
2017-07-02T11:31:10.567Z,101440.09
2017-07-02T11:33:38.138Z,101445.87
2017-07-02T11:36:06.023Z,101446.87
2017-07-02T11:38:33.566Z,101430.18
2017-07-02T11:41:01.109Z,101445.75
2017-07-02T11:43:28.910Z,101443.08
2017-07-02T11:45:56.428Z,101441.11
2017-07-02T11:48:24.038Z,101433.58
2017-07-02T11:50:51.598Z,101428.52
2017-07-02T11:53:19.155Z,101441.53
2017-07-02T11:55:46.719Z,101434.55
2017-07-02T11:58:14.395Z,101436.02
2017-07-02T12:00:42.027Z,101439.11
2017-07-02T12:03:09.562Z,101440.66
2017-07-02T12:05:37.142Z,101439.64
2017-07-02T12:08:04.694Z,101443.41
2017-07-02T12:10:32.268Z,101443.83
2017-07-02T12:12:59.784Z,101438.62
2017-07-02T12:15:27.607Z,101442.52
2017-07-02T12:17:55.122Z,101438.44
2017-07-02T12:20:23.496Z,101436.63
2017-07-02T12:22:51.044Z,101429.27
2017-07-02T12:25:18.566Z,101441.03
2017-07-02T12:27:46.127Z,101442.44
2017-07-02T12:30:13.739Z,101440.32
2017-07-02T12:32:41.309Z,101446.52
2017-07-02T12:35:08.859Z,101443.94
2017-07-02T12:37:36.689Z,101441.15
2017-07-02T12:40:04.208Z,101441.14
2017-07-02T12:42:31.709Z,101440.36
2017-07-02T12:44:59.347Z,101445.26
2017-07-02T12:47:26.895Z,101452.77
2017-07-02T12:49:54.459Z,101446.17
2017-07-02T12:52:21.973Z,101444.33
2017-07-02T12:54:49.693Z,101445.95
2017-07-02T12:57:17.204Z,101446.55
2017-07-02T12:59:44.791Z,101453.33
2017-07-02T13:02:12.351Z,101453.63
2017-07-02T13:04:39.884Z,101452.39
2017-07-02T13:07:07.689Z,101456.91
2017-07-02T13:09:35.313Z,101465.84
2017-07-02T13:12:03.089Z,101474.73
2017-07-02T13:14:30.593Z,101470.98
2017-07-02T13:16:58.125Z,101475.98
2017-07-02T13:19:25.734Z,101482.89
2017-07-02T13:21:53.261Z,101492.53
2017-07-02T13:24:20.855Z,101493.09
2017-07-02T13:26:48.381Z,101501.25
2017-07-02T13:29:16.064Z,101495.97
2017-07-02T13:31:43.616Z,101491.83
2017-07-02T13:34:11.143Z,101495.85
2017-07-02T13:36:38.712Z,101491.23
2017-07-02T13:39:06.231Z,101498.70
2017-07-02T13:41:33.795Z,101497.25
2017-07-02T13:44:01.327Z,101508.36
2017-07-02T13:46:29.004Z,101507.95
2017-07-02T13:48:56.586Z,101500.23
2017-07-02T13:51:24.350Z,101492.56
2017-07-02T13:53:52.002Z,101498.39
2017-07-02T13:56:19.539Z,101500.77
2017-07-02T13:58:47.164Z,101497.16
2017-07-02T14:01:14.679Z,101502.13
2017-07-02T14:03:42.259Z,101492.27
2017-07-02T14:06:09.795Z,101498.68
2017-07-02T14:08:37.724Z,101494.78
2017-07-02T14:11:05.247Z,101493.22
2017-07-02T14:13:32.808Z,101492.27
2017-07-02T14:16:00.352Z,101491.17
2017-07-02T14:18:27.971Z,101488.71
2017-07-02T14:20:55.551Z,101486.73
2017-07-02T14:23:23.072Z,101484.45
2017-07-02T14:25:50.738Z,101493.43
2017-07-02T14:28:18.289Z,101488.56
2017-07-02T14:30:45.820Z,101493.33
2017-07-02T14:33:13.386Z,101479.86
2017-07-02T14:35:41.014Z,101482.16
2017-07-02T14:38:08.591Z,101479.61
2017-07-02T14:40:36.147Z,101477.55
2017-07-02T14:43:03.702Z,101475.38
2017-07-02T14:45:31.232Z,101481.49
2017-07-02T14:47:58.946Z,101484.24
2017-07-02T14:50:26.493Z,101475.58
2017-07-02T14:52:54.032Z,101482.45
2017-07-02T14:55:21.655Z,101487.47
2017-07-02T14:57:49.166Z,101485.94
2017-07-02T15:00:16.742Z,101487.47
2017-07-02T15:02:44.252Z,101484.73
2017-07-02T15:05:11.807Z,101474.97
2017-07-02T15:07:39.332Z,101479.27
2017-07-02T15:10:06.921Z,101483.72
2017-07-02T15:12:34.466Z,101480.50
2017-07-02T15:15:02.019Z,101484.48
2017-07-02T15:17:29.546Z,101488.16
2017-07-02T15:19:57.076Z,101488.38
2017-07-02T15:22:24.721Z,101485.16
2017-07-02T15:24:52.319Z,101481.05
2017-07-02T15:27:19.872Z,101476.81
2017-07-02T15:29:47.459Z,101473.53
2017-07-02T15:32:15.024Z,101472.58
2017-07-02T15:34:42.553Z,101480.25
2017-07-02T15:37:10.146Z,101478.73
2017-07-02T15:39:37.666Z,101474.61
2017-07-02T15:42:05.233Z,101472.98
2017-07-02T15:44:32.768Z,101468.30
2017-07-02T15:47:00.337Z,101473.33
2017-07-02T15:49:27.896Z,101469.50
2017-07-02T15:51:55.516Z,101464.92
2017-07-02T15:54:23.104Z,101460.23
2017-07-02T15:56:50.674Z,101476.01
2017-07-02T15:59:18.383Z,101467.17
2017-07-02T16:01:45.931Z,101471.83
2017-07-02T16:04:13.488Z,101472.03
2017-07-02T16:06:41.075Z,101469.00
2017-07-02T16:09:08.639Z,101475.80
2017-07-02T16:11:36.205Z,101482.95
2017-07-02T16:14:03.744Z,101477.91
2017-07-02T16:16:31.701Z,101468.03
2017-07-02T16:18:59.293Z,101474.50
2017-07-02T16:21:26.918Z,101469.48
2017-07-02T16:23:54.476Z,101474.83
2017-07-02T16:26:22.040Z,101476.27
2017-07-02T16:28:49.633Z,101473.97
2017-07-02T16:31:17.189Z,101474.52
2017-07-02T16:33:44.753Z,101475.88
2017-07-02T16:36:12.275Z,101474.67
2017-07-02T16:38:39.857Z,101469.92
2017-07-02T16:41:07.368Z,101467.52
2017-07-02T16:43:35.067Z,101474.88
2017-07-02T16:46:02.593Z,101477.94
2017-07-02T16:48:30.135Z,101475.77
2017-07-02T16:50:57.667Z,101491.14
2017-07-02T16:53:25.217Z,101482.61
2017-07-02T16:55:52.766Z,101488.70
2017-07-02T16:58:20.280Z,101489.55
2017-07-02T17:00:47.839Z,101485.34
2017-07-02T17:03:15.358Z,101496.28
2017-07-02T17:05:43.035Z,101491.47
2017-07-02T17:08:10.561Z,101492.89
2017-07-02T17:10:38.161Z,101494.65
2017-07-02T17:13:05.760Z,101498.52
2017-07-02T17:15:33.351Z,101494.91
2017-07-02T17:18:00.924Z,101500.69
2017-07-02T17:20:28.468Z,101502.59
2017-07-02T17:22:56.032Z,101506.72
2017-07-02T17:25:23.606Z,101509.22
2017-07-02T17:27:51.421Z,101505.05
2017-07-02T17:30:18.967Z,101512.23
2017-07-02T17:32:46.473Z,101508.48
2017-07-02T17:35:14.031Z,101506.48
2017-07-02T17:37:41.590Z,101507.91
2017-07-02T17:40:09.179Z,101503.52
2017-07-02T17:42:36.764Z,101506.39
2017-07-02T17:45:04.334Z,101512.00
2017-07-02T17:47:31.847Z,101509.96
2017-07-02T17:49:59.412Z,101508.97
2017-07-02T17:52:27.098Z,101514.25
2017-07-02T17:54:54.659Z,101526.90
2017-07-02T17:57:22.348Z,101527.45
2017-07-02T17:59:49.910Z,101529.14
2017-07-02T18:02:17.601Z,101528.82
2017-07-02T18:04:45.366Z,101530.11
2017-07-02T18:07:12.876Z,101530.73
2017-07-02T18:09:40.433Z,101536.53
2017-07-02T18:12:07.965Z,101537.34
2017-07-02T18:14:35.527Z,101534.47
2017-07-02T18:17:03.127Z,101538.12
2017-07-02T18:19:30.795Z,101539.45
2017-07-02T18:21:58.303Z,101542.67
2017-07-02T18:24:25.827Z,101545.61
2017-07-02T18:26:53.399Z,101548.41
2017-07-02T18:29:20.951Z,101545.52
2017-07-02T18:31:48.559Z,101546.97
2017-07-02T18:34:16.154Z,101553.62
2017-07-02T18:36:43.755Z,101550.28
2017-07-02T18:39:11.313Z,101558.77
2017-07-02T18:41:38.880Z,101555.92
2017-07-02T18:44:06.479Z,101566.38
2017-07-02T18:46:34.150Z,101567.28
2017-07-02T18:49:01.719Z,101578.98
2017-07-02T18:51:29.278Z,101578.05
2017-07-02T18:53:56.884Z,101575.73
2017-07-02T18:56:24.412Z,101582.27
2017-07-02T18:58:51.975Z,101583.00
2017-07-02T19:01:19.506Z,101586.98
2017-07-02T19:03:47.456Z,101581.91
2017-07-02T19:06:14.979Z,101591.92
2017-07-02T19:08:42.528Z,101592.06
2017-07-02T19:11:10.139Z,101597.13
2017-07-02T19:13:37.707Z,101594.06
2017-07-02T19:16:05.259Z,101599.28
2017-07-02T19:18:32.793Z,101598.80
2017-07-02T19:21:00.396Z,101601.86
2017-07-02T19:23:28.019Z,101608.30
2017-07-02T19:25:55.604Z,101610.37
2017-07-02T19:28:23.178Z,101618.30
2017-07-02T19:30:50.828Z,101622.61
2017-07-02T19:33:18.361Z,101623.17
2017-07-02T19:35:45.888Z,101626.33
2017-07-02T19:38:13.467Z,101625.52
2017-07-02T19:40:41.044Z,101633.00
2017-07-02T19:43:08.660Z,101641.80
2017-07-02T19:45:36.193Z,101643.46
2017-07-02T19:48:03.774Z,101653.55
2017-07-02T19:50:31.383Z,101653.41
2017-07-02T19:52:59.064Z,101658.80
2017-07-02T19:55:26.597Z,101662.95
2017-07-02T19:57:54.146Z,101666.63
2017-07-02T20:00:21.779Z,101676.29
2017-07-02T20:02:49.295Z,101670.70
2017-07-02T20:05:16.879Z,101681.34
2017-07-02T20:07:44.473Z,101682.63
2017-07-02T20:10:12.411Z,101684.31
2017-07-02T20:12:40.037Z,101702.03
2017-07-02T20:15:07.624Z,101700.91
2017-07-02T20:17:35.171Z,101705.52
2017-07-02T20:20:02.696Z,101704.27
2017-07-02T20:22:30.268Z,101709.98
2017-07-02T20:24:57.800Z,101711.01
2017-07-02T20:27:25.499Z,101714.05
2017-07-02T20:29:53.069Z,101717.17
2017-07-02T20:32:20.751Z,101722.09
2017-07-02T20:34:48.286Z,101723.23
2017-07-02T20:37:15.832Z,101728.91
2017-07-02T20:39:43.422Z,101736.11
2017-07-02T20:42:10.955Z,101723.31
2017-07-02T20:44:38.491Z,101728.42
2017-07-02T20:47:05.995Z,101728.25
2017-07-02T20:49:33.555Z,101730.22
2017-07-02T20:52:01.085Z,101732.35
2017-07-02T20:54:28.645Z,101736.76
2017-07-02T20:56:56.166Z,101738.07
2017-07-02T20:59:23.826Z,101731.91
2017-07-02T21:01:51.356Z,101735.00
2017-07-02T21:04:18.869Z,101731.09
2017-07-02T21:06:46.549Z,101741.80
2017-07-02T21:09:14.079Z,101737.98
2017-07-02T21:11:41.708Z,101745.84
2017-07-02T21:14:09.234Z,101739.95
2017-07-02T21:16:36.836Z,101738.06
2017-07-02T21:19:04.350Z,101735.91
2017-07-02T21:21:31.920Z,101744.01
2017-07-02T21:23:59.448Z,101745.20
2017-07-02T21:26:27.257Z,101750.31
2017-07-02T21:28:54.753Z,101751.83
2017-07-02T21:31:22.272Z,101756.92
2017-07-02T21:33:49.830Z,101760.33
2017-07-02T21:36:17.339Z,101759.59
2017-07-02T21:38:44.924Z,101766.52
2017-07-02T21:41:12.487Z,101758.17
2017-07-02T21:43:40.067Z,101766.32
2017-07-02T21:46:07.632Z,101766.66
2017-07-02T21:48:35.184Z,101764.98
2017-07-02T21:51:02.691Z,101765.55
2017-07-02T21:53:30.365Z,101769.58
2017-07-02T21:55:57.871Z,101773.89
2017-07-02T21:58:25.391Z,101774.62
2017-07-02T22:00:52.945Z,101777.14
2017-07-02T22:03:20.466Z,101775.83
2017-07-02T22:05:48.019Z,101777.54
2017-07-02T22:08:15.530Z,101781.56
2017-07-02T22:10:43.180Z,101783.88
2017-07-02T22:13:10.716Z,101790.00
2017-07-02T22:15:38.249Z,101795.11
2017-07-02T22:18:05.792Z,101796.20
2017-07-02T22:20:33.320Z,101792.97
2017-07-02T22:23:00.940Z,101801.11
2017-07-02T22:25:28.522Z,101804.75
2017-07-02T22:27:56.379Z,101799.89
2017-07-02T22:30:23.904Z,101805.31
2017-07-02T22:32:51.418Z,101803.55
2017-07-02T22:35:18.977Z,101808.16
2017-07-02T22:37:46.503Z,101816.83
2017-07-02T22:40:14.071Z,101815.89
2017-07-02T22:42:41.572Z,101819.16
2017-07-02T22:45:09.114Z,101812.80
2017-07-02T22:47:36.622Z,101820.08
2017-07-02T22:50:04.196Z,101823.20
2017-07-02T22:52:31.760Z,101821.97
2017-07-02T22:54:59.502Z,101827.23
2017-07-02T22:57:27.099Z,101819.95
2017-07-02T22:59:54.620Z,101825.09
2017-07-02T23:02:22.180Z,101817.13
2017-07-02T23:04:49.695Z,101816.17
2017-07-02T23:07:17.400Z,101815.20
2017-07-02T23:09:44.911Z,101823.47
2017-07-02T23:12:12.692Z,101824.42
2017-07-02T23:14:40.204Z,101826.70
2017-07-02T23:17:07.722Z,101829.42
2017-07-02T23:19:35.408Z,101824.14
2017-07-02T23:22:02.922Z,101823.86
2017-07-02T23:24:30.512Z,101822.24
2017-07-02T23:26:58.091Z,101823.05
2017-07-02T23:29:25.683Z,101821.53
2017-07-02T23:31:53.250Z,101827.43
2017-07-02T23:34:20.840Z,101826.00
2017-07-02T23:36:48.480Z,101821.78
2017-07-02T23:39:15.994Z,101823.02
2017-07-02T23:41:43.562Z,101822.91
2017-07-02T23:44:11.084Z,101820.33
2017-07-02T23:46:38.655Z,101820.21
2017-07-02T23:49:06.219Z,101822.77
2017-07-02T23:51:33.820Z,101822.44
2017-07-02T23:54:01.395Z,101824.40
2017-07-02T23:56:29.180Z,101822.34
2017-07-02T23:58:56.707Z,101822.77
